sensor_id;sensor_type;location;lat;lon;timestamp;pressure;altitude;pressure_sealevel;temperature;humidity
54512;BME280;40419;47.438;19.026;2022-08-05T00:00:13;99861.31;;;23.54;47.05
54512;BME280;40419;47.438;19.026;2022-08-05T00:02:44;99850.47;;;23.63;46.18
54512;BME280;40419;47.438;19.026;2022-08-05T00:05:14;99857.19;;;23.52;46.86
54512;BME280;40419;47.438;19.026;2022-08-05T00:07:42;99850.56;;;23.53;46.33
54512;BME280;40419;47.438;19.026;2022-08-05T00:10:08;99852.88;;;23.41;47.04
54512;BME280;40419;47.438;19.026;2022-08-05T00:12:34;99853.97;;;23.40;46.67
54512;BME280;40419;47.438;19.026;2022-08-05T00:15:00;99853.97;;;23.40;46.96
54512;BME280;40419;47.438;19.026;2022-08-05T00:17:26;99847.94;;;23.32;47.49
54512;BME280;40419;47.438;19.026;2022-08-05T00:19:56;99855.47;;;23.27;47.33
54512;BME280;40419;47.438;19.026;2022-08-05T00:22:21;99848.63;;;23.19;48.14
54512;BME280;40419;47.438;19.026;2022-08-05T00:24:47;99853.34;;;23.13;47.77
54512;BME280;40419;47.438;19.026;2022-08-05T00:27:12;99847.47;;;23.25;47.61
54512;BME280;40419;47.438;19.026;2022-08-05T00:29:40;99856.94;;;23.14;47.67
54512;BME280;40419;47.438;19.026;2022-08-05T00:32:08;99848.06;;;23.17;48.00
54512;BME280;40419;47.438;19.026;2022-08-05T00:34:38;99840.56;;;23.23;47.17
54512;BME280;40419;47.438;19.026;2022-08-05T00:37:04;99849.81;;;23.03;48.48
54512;BME280;40419;47.438;19.026;2022-08-05T00:39:33;99843.78;;;22.95;47.99
54512;BME280;40419;47.438;19.026;2022-08-05T00:41:59;99839.34;;;22.99;47.30
54512;BME280;40419;47.438;19.026;2022-08-05T00:44:29;99835.16;;;23.02;47.79
54512;BME280;40419;47.438;19.026;2022-08-05T00:46:55;99843.44;;;23.02;47.36
54512;BME280;40419;47.438;19.026;2022-08-05T00:49:23;99835.97;;;23.08;46.86
54512;BME280;40419;47.438;19.026;2022-08-05T00:51:48;99835.41;;;23.11;47.32
54512;BME280;40419;47.438;19.026;2022-08-05T00:54:16;99839.56;;;23.03;47.34
54512;BME280;40419;47.438;19.026;2022-08-05T00:56:42;99837.63;;;23.04;47.24
54512;BME280;40419;47.438;19.026;2022-08-05T00:59:12;99832.13;;;23.04;47.28
54512;BME280;40419;47.438;19.026;2022-08-05T01:01:38;99833.84;;;22.94;47.27
54512;BME280;40419;47.438;19.026;2022-08-05T01:04:06;99834.38;;;22.96;47.04
54512;BME280;40419;47.438;19.026;2022-08-05T01:06:34;99832.72;;;22.95;47.17
54512;BME280;40419;47.438;19.026;2022-08-05T01:09:00;99828.81;;;23.01;46.21
54512;BME280;40419;47.438;19.026;2022-08-05T01:11:34;99830.78;;;23.01;46.87
54512;BME280;40419;47.438;19.026;2022-08-05T01:14:13;99839.34;;;22.99;46.68
54512;BME280;40419;47.438;19.026;2022-08-05T01:16:53;99834.13;;;22.93;46.95
54512;BME280;40419;47.438;19.026;2022-08-05T01:27:37;99833.25;;;22.97;46.73
54512;BME280;40419;47.438;19.026;2022-08-05T01:30:09;99839.84;;;23.12;46.53
54512;BME280;40419;47.438;19.026;2022-08-05T01:32:37;99837.63;;;23.04;47.18
54512;BME280;40419;47.438;19.026;2022-08-05T01:35:08;99836.31;;;22.96;46.90
54512;BME280;40419;47.438;19.026;2022-08-05T01:37:50;99832.13;;;23.04;47.11
54512;BME280;40419;47.438;19.026;2022-08-05T01:40:22;99841.59;;;22.92;47.27
54512;BME280;40419;47.438;19.026;2022-08-05T01:42:53;99837.16;;;22.96;46.82
54512;BME280;40419;47.438;19.026;2022-08-05T01:45:20;99840.22;;;22.90;46.97
54512;BME280;40419;47.438;19.026;2022-08-05T01:47:50;99846.88;;;22.83;47.22
54512;BME280;40419;47.438;19.026;2022-08-05T01:50:24;99839.94;;;22.91;47.10
54512;BME280;40419;47.438;19.026;2022-08-05T01:52:58;99841.94;;;22.80;47.31
54512;BME280;40419;47.438;19.026;2022-08-05T01:55:28;99836.16;;;22.77;47.01
54512;BME280;40419;47.438;19.026;2022-08-05T01:57:56;99839.41;;;22.84;46.99
54512;BME280;40419;47.438;19.026;2022-08-05T02:00:23;99837.78;;;22.78;47.04
54512;BME280;40419;47.438;19.026;2022-08-05T02:02:57;99845.78;;;22.79;46.88
54512;BME280;40419;47.438;19.026;2022-08-05T02:05:29;99835.06;;;22.73;46.82
54512;BME280;40419;47.438;19.026;2022-08-05T02:07:58;99828.97;;;22.76;46.51
54512;BME280;40419;47.438;19.026;2022-08-05T02:10:30;99839.50;;;22.74;47.16
54512;BME280;40419;47.438;19.026;2022-08-05T02:13:16;99835.38;;;22.66;47.39
54512;BME280;40419;47.438;19.026;2022-08-05T02:16:26;99833.16;;;22.68;47.14
54512;BME280;40419;47.438;19.026;2022-08-05T02:18:58;99829.59;;;22.62;47.55
54512;BME280;40419;47.438;19.026;2022-08-05T02:21:32;99837.91;;;22.57;47.83
54512;BME280;40419;47.438;19.026;2022-08-05T02:24:06;99833.22;;;22.58;47.79
54512;BME280;40419;47.438;19.026;2022-08-05T02:26:47;99838.69;;;22.68;47.09
54512;BME280;40419;47.438;19.026;2022-08-05T02:29:15;99831.25;;;22.63;47.41
54512;BME280;40419;47.438;19.026;2022-08-05T02:31:47;99825.47;;;22.65;47.17
54512;BME280;40419;47.438;19.026;2022-08-05T02:34:17;99835.75;;;22.49;47.83
54512;BME280;40419;47.438;19.026;2022-08-05T02:36:48;99822.50;;;22.46;47.54
54512;BME280;40419;47.438;19.026;2022-08-05T02:39:20;99826.31;;;22.55;47.85
54512;BME280;40419;47.438;19.026;2022-08-05T02:41:47;99810.94;;;22.44;47.86
54512;BME280;40419;47.438;19.026;2022-08-05T02:44:19;99820.84;;;22.45;47.65
54512;BME280;40419;47.438;19.026;2022-08-05T02:46:46;99827.53;;;22.34;48.12
54512;BME280;40419;47.438;19.026;2022-08-05T02:49:18;99818.97;;;22.35;47.96
54512;BME280;40419;47.438;19.026;2022-08-05T02:51:44;99819.50;;;22.42;48.34
54512;BME280;40419;47.438;19.026;2022-08-05T02:54:11;99822.03;;;22.34;47.96
54512;BME280;40419;47.438;19.026;2022-08-05T02:56:39;99823.66;;;22.29;48.19
54512;BME280;40419;47.438;19.026;2022-08-05T02:59:10;99821.75;;;22.30;48.22
54512;BME280;40419;47.438;19.026;2022-08-05T03:01:38;99810.72;;;22.25;48.17
54512;BME280;40419;47.438;19.026;2022-08-05T03:04:10;99819.81;;;22.25;48.81
54512;BME280;40419;47.438;19.026;2022-08-05T03:06:40;99813.78;;;22.13;49.13
54512;BME280;40419;47.438;19.026;2022-08-05T03:09:14;99818.69;;;22.26;48.67
54512;BME280;40419;47.438;19.026;2022-08-05T03:11:41;99817.88;;;22.21;49.19
54512;BME280;40419;47.438;19.026;2022-08-05T03:14:07;99809.38;;;22.17;48.83
54512;BME280;40419;47.438;19.026;2022-08-05T03:16:35;99809.13;;;22.13;49.15
54512;BME280;40419;47.438;19.026;2022-08-05T03:19:01;99811.59;;;22.10;49.74
54512;BME280;40419;47.438;19.026;2022-08-05T03:21:32;99811.31;;;22.17;49.46
54512;BME280;40419;47.438;19.026;2022-08-05T03:24:01;99807.72;;;22.11;49.75
54512;BME280;40419;47.438;19.026;2022-08-05T03:26:29;99801.44;;;22.00;50.22
54512;BME280;40419;47.438;19.026;2022-08-05T03:29:03;99802.22;;;22.11;51.08
54512;BME280;40419;47.438;19.026;2022-08-05T03:31:31;99798.06;;;22.19;51.17
54512;BME280;40419;47.438;19.026;2022-08-05T03:33:59;99803.84;;;22.22;51.61
54512;BME280;40419;47.438;19.026;2022-08-05T03:36:27;99807.38;;;22.28;51.88
54512;BME280;40419;47.438;19.026;2022-08-05T03:38:53;99797.47;;;22.27;52.60
54512;BME280;40419;47.438;19.026;2022-08-05T03:41:22;99811.00;;;22.23;51.67
54512;BME280;40419;47.438;19.026;2022-08-05T03:43:51;99804.38;;;22.35;52.70
54512;BME280;40419;47.438;19.026;2022-08-05T03:46:22;99797.41;;;22.53;52.51
54512;BME280;40419;47.438;19.026;2022-08-05T03:48:48;99798.22;;;22.53;52.46
54512;BME280;40419;47.438;19.026;2022-08-05T03:51:24;99806.28;;;22.89;52.15
54512;BME280;40419;47.438;19.026;2022-08-05T03:54:01;99811.84;;;23.24;51.95
54512;BME280;40419;47.438;19.026;2022-08-05T03:56:44;99808.06;;;23.73;49.76
54512;BME280;40419;47.438;19.026;2022-08-05T03:59:14;99798.56;;;24.57;47.88
54512;BME280;40419;47.438;19.026;2022-08-05T04:01:43;99804.88;;;25.01;46.68
54512;BME280;40419;47.438;19.026;2022-08-05T04:04:13;99809.66;;;25.14;46.59
54512;BME280;40419;47.438;19.026;2022-08-05T04:06:39;99811.38;;;24.72;48.70
54512;BME280;40419;47.438;19.026;2022-08-05T04:09:06;99812.53;;;24.47;49.99
54512;BME280;40419;47.438;19.026;2022-08-05T04:11:37;99803.47;;;24.17;51.52
54512;BME280;40419;47.438;19.026;2022-08-05T04:14:03;99816.72;;;23.96;53.25
54512;BME280;40419;47.438;19.026;2022-08-05T04:16:31;99814.25;;;23.94;53.34
54512;BME280;40419;47.438;19.026;2022-08-05T04:18:58;99817.66;;;23.86;53.55
54512;BME280;40419;47.438;19.026;2022-08-05T04:21:27;99814.91;;;23.81;53.28
54512;BME280;40419;47.438;19.026;2022-08-05T04:23:56;99812.59;;;23.64;53.49
54512;BME280;40419;47.438;19.026;2022-08-05T04:26:27;99807.47;;;23.81;53.39
54512;BME280;40419;47.438;19.026;2022-08-05T04:28:55;99808.81;;;23.84;53.76
54512;BME280;40419;47.438;19.026;2022-08-05T04:31:20;99808.72;;;23.94;53.63
54512;BME280;40419;47.438;19.026;2022-08-05T04:33:50;99804.44;;;23.78;53.16
54512;BME280;40419;47.438;19.026;2022-08-05T04:36:18;99812.50;;;23.74;52.64
54512;BME280;40419;47.438;19.026;2022-08-05T04:38:47;99807.91;;;23.94;52.96
54512;BME280;40419;47.438;19.026;2022-08-05T04:41:13;99808.09;;;24.02;52.56
54512;BME280;40419;47.438;19.026;2022-08-05T04:43:39;99814.91;;;23.81;52.59
54512;BME280;40419;47.438;19.026;2022-08-05T04:46:05;99825.31;;;23.94;52.57
54512;BME280;40419;47.438;19.026;2022-08-05T04:48:31;99809.66;;;23.79;54.10
54512;BME280;40419;47.438;19.026;2022-08-05T04:50:59;99811.78;;;23.63;54.75
54512;BME280;40419;47.438;19.026;2022-08-05T04:53:27;99808.91;;;23.74;55.03
54512;BME280;40419;47.438;19.026;2022-08-05T04:55:53;99815.25;;;23.74;54.93
54512;BME280;40419;47.438;19.026;2022-08-05T04:58:21;99810.25;;;23.76;53.85
54512;BME280;40419;47.438;19.026;2022-08-05T05:00:47;99814.91;;;23.81;53.94
54512;BME280;40419;47.438;19.026;2022-08-05T05:03:15;99805.94;;;23.94;53.08
54512;BME280;40419;47.438;19.026;2022-08-05T05:05:42;99812.91;;;23.92;53.37
54512;BME280;40419;47.438;19.026;2022-08-05T05:08:09;99807.53;;;24.00;52.19
54512;BME280;40419;47.438;19.026;2022-08-05T05:10:43;99810.56;;;24.04;51.46
54512;BME280;40419;47.438;19.026;2022-08-05T05:13:16;99806.03;;;23.89;52.89
54512;BME280;40419;47.438;19.026;2022-08-05T05:15:44;99802.88;;;24.20;51.13
54512;BME280;40419;47.438;19.026;2022-08-05T05:18:14;99805.88;;;24.48;50.39
54512;BME280;40419;47.438;19.026;2022-08-05T05:20:42;99795.66;;;24.24;50.79
54512;BME280;40419;47.438;19.026;2022-08-05T05:23:12;99810.44;;;24.38;50.87
54512;BME280;40419;47.438;19.026;2022-08-05T05:25:40;99805.47;;;24.59;48.21
54512;BME280;40419;47.438;19.026;2022-08-05T05:28:09;99798.97;;;24.69;48.57
54512;BME280;40419;47.438;19.026;2022-08-05T05:30:38;99806.31;;;24.79;46.90
54512;BME280;40419;47.438;19.026;2022-08-05T05:33:07;99797.91;;;24.65;46.30
54512;BME280;40419;47.438;19.026;2022-08-05T05:35:35;99798.72;;;24.85;46.21
54512;BME280;40419;47.438;19.026;2022-08-05T05:38:01;99803.50;;;24.98;44.79
54512;BME280;40419;47.438;19.026;2022-08-05T05:40:34;99801.50;;;24.85;46.09
54512;BME280;40419;47.438;19.026;2022-08-05T05:43:07;99807.13;;;24.80;44.27
54512;BME280;40419;47.438;19.026;2022-08-05T05:45:33;99795.28;;;24.93;44.71
54512;BME280;40419;47.438;19.026;2022-08-05T05:48:01;99799.25;;;25.06;44.56
54512;BME280;40419;47.438;19.026;2022-08-05T05:50:28;99794.31;;;25.03;44.91
54512;BME280;40419;47.438;19.026;2022-08-05T05:52:54;99797.22;;;25.11;45.42
54512;BME280;40419;47.438;19.026;2022-08-05T05:55:19;99794.25;;;24.89;45.05
54512;BME280;40419;47.438;19.026;2022-08-05T05:57:46;99795.34;;;25.07;44.52
54512;BME280;40419;47.438;19.026;2022-08-05T06:00:15;99787.94;;;25.02;44.65
54512;BME280;40419;47.438;19.026;2022-08-05T06:02:41;99793.97;;;25.23;44.26
54512;BME280;40419;47.438;19.026;2022-08-05T06:05:09;99790.59;;;25.45;43.76
54512;BME280;40419;47.438;19.026;2022-08-05T06:07:37;99788.94;;;25.44;44.38
54512;BME280;40419;47.438;19.026;2022-08-05T06:10:05;99793.28;;;25.51;43.42
54512;BME280;40419;47.438;19.026;2022-08-05T06:12:30;99802.50;;;25.46;44.54
54512;BME280;40419;47.438;19.026;2022-08-05T06:14:59;99796.16;;;25.59;43.93
54512;BME280;40419;47.438;19.026;2022-08-05T06:17:27;99795.75;;;25.66;43.00
54512;BME280;40419;47.438;19.026;2022-08-05T06:19:56;99797.72;;;25.65;42.74
54512;BME280;40419;47.438;19.026;2022-08-05T06:22:26;99802.97;;;25.67;42.60
54512;BME280;40419;47.438;19.026;2022-08-05T06:24:52;99797.59;;;25.57;42.89
54512;BME280;40419;47.438;19.026;2022-08-05T06:27:20;99791.06;;;25.80;42.94
54512;BME280;40419;47.438;19.026;2022-08-05T06:29:46;99798.78;;;25.83;42.51
54512;BME280;40419;47.438;19.026;2022-08-05T06:32:16;99802.16;;;25.80;42.07
54512;BME280;40419;47.438;19.026;2022-08-05T06:34:42;99801.06;;;26.09;42.22
54512;BME280;40419;47.438;19.026;2022-08-05T06:37:08;99799.53;;;26.03;41.57
54512;BME280;40419;47.438;19.026;2022-08-05T06:39:36;99796.63;;;26.22;42.01
54512;BME280;40419;47.438;19.026;2022-08-05T06:42:07;99796.22;;;26.43;40.75
54512;BME280;40419;47.438;19.026;2022-08-05T06:44:36;99797.84;;;26.30;39.85
54512;BME280;40419;47.438;19.026;2022-08-05T06:47:05;99793.31;;;26.62;38.89
54512;BME280;40419;47.438;19.026;2022-08-05T06:49:33;99791.78;;;26.69;38.51
54512;BME280;40419;47.438;19.026;2022-08-05T06:51:58;99795.13;;;26.80;38.57
54512;BME280;40419;47.438;19.026;2022-08-05T06:54:26;99808.25;;;26.88;39.01
54512;BME280;40419;47.438;19.026;2022-08-05T06:56:54;99801.09;;;26.74;39.27
54512;BME280;40419;47.438;19.026;2022-08-05T06:59:22;99798.84;;;26.76;40.24
54512;BME280;40419;47.438;19.026;2022-08-05T07:01:52;99795.53;;;26.87;39.37
54512;BME280;40419;47.438;19.026;2022-08-05T07:04:20;99801.59;;;26.90;40.02
54512;BME280;40419;47.438;19.026;2022-08-05T07:06:46;99789.84;;;26.93;39.35
54512;BME280;40419;47.438;19.026;2022-08-05T07:09:14;99808.13;;;26.71;37.82
54512;BME280;40419;47.438;19.026;2022-08-05T07:11:39;99801.63;;;26.76;37.82
54512;BME280;40419;47.438;19.026;2022-08-05T07:14:07;99801.78;;;26.93;38.74
54512;BME280;40419;47.438;19.026;2022-08-05T07:16:53;99800.97;;;27.15;37.69
54512;BME280;40419;47.438;19.026;2022-08-05T07:19:24;99792.78;;;27.10;37.30
54512;BME280;40419;47.438;19.026;2022-08-05T07:21:52;99806.69;;;27.33;37.61
54512;BME280;40419;47.438;19.026;2022-08-05T07:24:20;99797.81;;;27.31;37.58
54512;BME280;40419;47.438;19.026;2022-08-05T07:26:47;99799.41;;;27.46;37.62
54512;BME280;40419;47.438;19.026;2022-08-05T07:29:13;99798.69;;;27.63;38.85
54512;BME280;40419;47.438;19.026;2022-08-05T07:31:40;99799.16;;;27.56;36.89
54512;BME280;40419;47.438;19.026;2022-08-05T07:34:09;99798.69;;;27.63;37.81
54512;BME280;40419;47.438;19.026;2022-08-05T07:36:35;99790.47;;;27.57;36.61
54512;BME280;40419;47.438;19.026;2022-08-05T07:39:05;99779.25;;;27.71;37.67
54512;BME280;40419;47.438;19.026;2022-08-05T07:41:34;99785.34;;;27.82;38.05
54512;BME280;40419;47.438;19.026;2022-08-05T07:44:01;99786.19;;;27.83;36.61
54512;BME280;40419;47.438;19.026;2022-08-05T07:46:29;99790.16;;;27.90;37.00
54512;BME280;40419;47.438;19.026;2022-08-05T07:48:57;99791.97;;;27.95;37.19
54512;BME280;40419;47.438;19.026;2022-08-05T07:51:25;99787.00;;;28.15;36.47
54512;BME280;40419;47.438;19.026;2022-08-05T07:53:51;99778.22;;;28.39;36.79
54512;BME280;40419;47.438;19.026;2022-08-05T07:56:19;99783.94;;;28.42;36.68
54512;BME280;40419;47.438;19.026;2022-08-05T07:58:50;99785.13;;;28.41;35.23
54512;BME280;40419;47.438;19.026;2022-08-05T08:01:18;99795.91;;;28.34;35.71
54512;BME280;40419;47.438;19.026;2022-08-05T08:03:43;99786.59;;;28.56;36.23
54512;BME280;40419;47.438;19.026;2022-08-05T08:06:12;99779.75;;;28.62;35.77
54512;BME280;40419;47.438;19.026;2022-08-05T08:08:40;99790.09;;;28.79;34.38
54512;BME280;40419;47.438;19.026;2022-08-05T08:11:05;99791.88;;;28.75;34.65
54512;BME280;40419;47.438;19.026;2022-08-05T08:13:31;99784.34;;;28.93;34.84
54512;BME280;40419;47.438;19.026;2022-08-05T08:15:59;99782.38;;;29.11;34.42
54512;BME280;40419;47.438;19.026;2022-08-05T08:18:27;99778.13;;;29.23;34.70
54512;BME280;40419;47.438;19.026;2022-08-05T08:20:52;99777.63;;;29.38;34.05
54512;BME280;40419;47.438;19.026;2022-08-05T08:23:22;99778.09;;;29.40;33.28
54512;BME280;40419;47.438;19.026;2022-08-05T08:25:50;99777.41;;;29.52;33.82
54512;BME280;40419;47.438;19.026;2022-08-05T08:28:16;99785.09;;;29.64;33.25
54512;BME280;40419;47.438;19.026;2022-08-05T08:30:41;99774.44;;;29.48;32.88
54512;BME280;40419;47.438;19.026;2022-08-05T08:33:12;99779.31;;;29.69;32.89
54512;BME280;40419;47.438;19.026;2022-08-05T08:35:38;99771.25;;;29.76;33.59
54512;BME280;40419;47.438;19.026;2022-08-05T08:38:09;99780.84;;;29.58;32.35
54512;BME280;40419;47.438;19.026;2022-08-05T08:40:41;99773.38;;;29.79;33.72
54512;BME280;40419;47.438;19.026;2022-08-05T08:43:10;99776.94;;;29.97;32.48
54512;BME280;40419;47.438;19.026;2022-08-05T08:45:45;99777.84;;;29.72;33.22
54512;BME280;40419;47.438;19.026;2022-08-05T08:48:15;99780.09;;;29.87;32.89
54512;BME280;40419;47.438;19.026;2022-08-05T08:50:52;99777.03;;;30.10;33.44
54512;BME280;40419;47.438;19.026;2022-08-05T08:53:22;99779.75;;;29.97;32.74
54512;BME280;40419;47.438;19.026;2022-08-05T08:55:54;99780.44;;;30.24;33.65
54512;BME280;40419;47.438;19.026;2022-08-05T08:58:25;99779.69;;;30.36;32.32
54512;BME280;40419;47.438;19.026;2022-08-05T09:00:50;99768.59;;;30.27;32.76
54512;BME280;40419;47.438;19.026;2022-08-05T09:03:22;99766.88;;;30.35;32.95
54512;BME280;40419;47.438;19.026;2022-08-05T09:05:48;99774.97;;;30.57;32.92
54512;BME280;40419;47.438;19.026;2022-08-05T09:08:15;99765.09;;;30.60;32.87
54512;BME280;40419;47.438;19.026;2022-08-05T09:10:44;99770.25;;;30.91;31.88
54512;BME280;40419;47.438;19.026;2022-08-05T09:13:14;99766.16;;;30.89;32.16
54512;BME280;40419;47.438;19.026;2022-08-05T09:15:42;99765.53;;;30.71;31.93
54512;BME280;40419;47.438;19.026;2022-08-05T09:18:08;99768.31;;;30.50;31.50
54512;BME280;40419;47.438;19.026;2022-08-05T09:20:37;99761.94;;;30.83;31.75
54512;BME280;40419;47.438;19.026;2022-08-05T09:23:10;99758.81;;;31.05;31.10
54512;BME280;40419;47.438;19.026;2022-08-05T09:25:43;99754.63;;;31.12;32.90
54512;BME280;40419;47.438;19.026;2022-08-05T09:28:22;99760.06;;;31.29;31.39
54512;BME280;40419;47.438;19.026;2022-08-05T09:30:55;99760.19;;;31.33;31.25
54512;BME280;40419;47.438;19.026;2022-08-05T09:33:23;99755.13;;;31.14;31.21
54512;BME280;40419;47.438;19.026;2022-08-05T09:36:02;99741.75;;;31.19;31.19
54512;BME280;40419;47.438;19.026;2022-08-05T09:38:31;99743.72;;;31.19;30.17
54512;BME280;40419;47.438;19.026;2022-08-05T09:41:07;99741.22;;;31.38;31.10
54512;BME280;40419;47.438;19.026;2022-08-05T09:43:58;99741.97;;;31.60;31.51
54512;BME280;40419;47.438;19.026;2022-08-05T09:46:31;99744.44;;;31.61;30.23
54512;BME280;40419;47.438;19.026;2022-08-05T09:49:00;99742.28;;;31.46;30.03
54512;BME280;40419;47.438;19.026;2022-08-05T09:51:32;99745.66;;;31.52;30.08
54512;BME280;40419;47.438;19.026;2022-08-05T09:54:01;99740.38;;;31.71;30.01
54512;BME280;40419;47.438;19.026;2022-08-05T09:56:33;99731.38;;;31.78;31.08
54512;BME280;40419;47.438;19.026;2022-08-05T09:59:04;99738.72;;;31.70;29.93
54512;BME280;40419;47.438;19.026;2022-08-05T10:01:33;99723.47;;;31.80;30.58
54512;BME280;40419;47.438;19.026;2022-08-05T10:04:04;99720.75;;;31.96;29.98
54512;BME280;40419;47.438;19.026;2022-08-05T10:06:31;99719.97;;;31.71;28.86
54512;BME280;40419;47.438;19.026;2022-08-05T10:09:18;99729.31;;;32.00;30.36
54512;BME280;40419;47.438;19.026;2022-08-05T10:11:46;99716.47;;;32.11;29.73
54512;BME280;40419;47.438;19.026;2022-08-05T10:16:50;99715.03;;;32.29;29.00
54512;BME280;40419;47.438;19.026;2022-08-05T10:19:19;99710.72;;;32.32;28.14
54512;BME280;40419;47.438;19.026;2022-08-05T10:21:52;99703.72;;;32.26;28.71
54512;BME280;40419;47.438;19.026;2022-08-05T10:24:19;99706.31;;;32.31;29.29
54512;BME280;40419;47.438;19.026;2022-08-05T10:26:48;99702.53;;;32.39;28.16
54512;BME280;40419;47.438;19.026;2022-08-05T10:29:22;99700.84;;;32.50;28.94
54512;BME280;40419;47.438;19.026;2022-08-05T10:31:48;99698.03;;;32.63;29.50
54512;BME280;40419;47.438;19.026;2022-08-05T10:34:18;99689.28;;;32.52;28.34
54512;BME280;40419;47.438;19.026;2022-08-05T10:36:46;99692.88;;;32.65;28.03
54512;BME280;40419;47.438;19.026;2022-08-05T10:39:24;99691.91;;;32.85;28.54
54512;BME280;40419;47.438;19.026;2022-08-05T10:44:28;99682.66;;;32.57;29.16
54512;BME280;40419;47.438;19.026;2022-08-05T10:46:58;99688.44;;;32.64;28.71
54512;BME280;40419;47.438;19.026;2022-08-05T10:52:42;99680.03;;;32.64;28.98
54512;BME280;40419;47.438;19.026;2022-08-05T10:55:11;99685.81;;;32.55;29.00
54512;BME280;40419;47.438;19.026;2022-08-05T10:57:39;99677.50;;;32.59;27.44
54512;BME280;40419;47.438;19.026;2022-08-05T11:00:18;99675.19;;;32.48;27.17
54512;BME280;40419;47.438;19.026;2022-08-05T11:05:33;99681.41;;;32.82;27.46
54512;BME280;40419;47.438;19.026;2022-08-05T11:08:03;99673.75;;;32.95;28.11
54512;BME280;40419;47.438;19.026;2022-08-05T11:10:33;99676.53;;;32.67;28.39
54512;BME280;40419;47.438;19.026;2022-08-05T11:13:04;99666.19;;;32.55;27.86
54512;BME280;40419;47.438;19.026;2022-08-05T11:15:37;99666.63;;;32.70;27.54
54512;BME280;40419;47.438;19.026;2022-08-05T11:20:44;99659.69;;;32.79;27.76
54512;BME280;40419;47.438;19.026;2022-08-05T11:36:07;99657.81;;;32.43;27.54
54512;BME280;40419;47.438;19.026;2022-08-05T11:41:21;99656.22;;;32.70;27.02
54512;BME280;40419;47.438;19.026;2022-08-05T11:44:04;99659.81;;;32.99;27.17
54512;BME280;40419;47.438;19.026;2022-08-05T11:49:00;99663.69;;;32.94;26.93
54512;BME280;40419;47.438;19.026;2022-08-05T11:51:29;99666.84;;;32.93;27.40
54512;BME280;40419;47.438;19.026;2022-08-05T11:53:58;99664.75;;;32.90;27.21
54512;BME280;40419;47.438;19.026;2022-08-05T11:56:50;99671.72;;;32.80;26.72
54512;BME280;40419;47.438;19.026;2022-08-05T11:59:23;99658.81;;;32.63;27.45
54512;BME280;40419;47.438;19.026;2022-08-05T12:02:03;99659.03;;;32.58;28.82
54512;BME280;40419;47.438;19.026;2022-08-05T12:04:43;99658.94;;;32.54;27.79
54512;BME280;40419;47.438;19.026;2022-08-05T12:07:11;99657.53;;;32.60;28.94
54512;BME280;40419;47.438;19.026;2022-08-05T12:09:39;99657.41;;;32.69;25.66
54512;BME280;40419;47.438;19.026;2022-08-05T12:12:07;99649.84;;;32.57;26.20
54512;BME280;40419;47.438;19.026;2022-08-05T12:14:43;99649.03;;;32.57;26.48
54512;BME280;40419;47.438;19.026;2022-08-05T12:17:13;99645.84;;;32.71;26.41
54512;BME280;40419;47.438;19.026;2022-08-05T12:19:44;99644.81;;;32.63;27.06
54512;BME280;40419;47.438;19.026;2022-08-05T12:22:14;99644.31;;;32.61;27.12
54512;BME280;40419;47.438;19.026;2022-08-05T12:24:44;99648.41;;;33.08;26.83
54512;BME280;40419;47.438;19.026;2022-08-05T12:27:22;99642.66;;;33.00;27.19
54512;BME280;40419;47.438;19.026;2022-08-05T12:30:05;99648.94;;;32.97;26.20
54512;BME280;40419;47.438;19.026;2022-08-05T12:32:34;99648.50;;;32.79;26.03
54512;BME280;40419;47.438;19.026;2022-08-05T12:35:04;99643.41;;;32.69;26.67
54512;BME280;40419;47.438;19.026;2022-08-05T12:37:33;99641.34;;;32.82;26.52
54512;BME280;40419;47.438;19.026;2022-08-05T12:39:59;99633.34;;;32.68;26.96
54512;BME280;40419;47.438;19.026;2022-08-05T12:42:28;99639.69;;;32.53;27.79
54512;BME280;40419;47.438;19.026;2022-08-05T12:45:08;99624.81;;;32.64;27.48
54512;BME280;40419;47.438;19.026;2022-08-05T12:47:36;99636.91;;;32.81;27.44
54512;BME280;40419;47.438;19.026;2022-08-05T12:50:14;99634.50;;;32.67;26.33
54512;BME280;40419;47.438;19.026;2022-08-05T12:52:56;99628.59;;;32.84;26.14
54512;BME280;40419;47.438;19.026;2022-08-05T12:55:28;99630.31;;;32.89;26.33
54512;BME280;40419;47.438;19.026;2022-08-05T12:57:55;99629.78;;;32.99;25.88
54512;BME280;40419;47.438;19.026;2022-08-05T13:00:23;99623.97;;;33.20;26.06
54512;BME280;40419;47.438;19.026;2022-08-05T13:02:52;99621.09;;;33.04;26.29
54512;BME280;40419;47.438;19.026;2022-08-05T13:05:19;99622.19;;;33.00;26.40
54512;BME280;40419;47.438;19.026;2022-08-05T13:07:47;99616.84;;;32.95;27.51
54512;BME280;40419;47.438;19.026;2022-08-05T13:10:14;99614.53;;;33.13;26.74
54512;BME280;40419;47.438;19.026;2022-08-05T13:12:42;99609.16;;;33.08;26.87
54512;BME280;40419;47.438;19.026;2022-08-05T13:15:11;99609.28;;;33.11;26.15
54512;BME280;40419;47.438;19.026;2022-08-05T13:17:38;99603.81;;;33.18;25.23
54512;BME280;40419;47.438;19.026;2022-08-05T13:20:06;99607.72;;;32.98;26.37
54512;BME280;40419;47.438;19.026;2022-08-05T13:22:36;99599.41;;;32.85;26.91
54512;BME280;40419;47.438;19.026;2022-08-05T13:25:07;99600.13;;;32.82;26.74
54512;BME280;40419;47.438;19.026;2022-08-05T13:27:38;99593.97;;;32.93;25.92
54512;BME280;40419;47.438;19.026;2022-08-05T13:30:08;99591.16;;;32.93;26.24
54512;BME280;40419;47.438;19.026;2022-08-05T13:32:34;99581.66;;;32.97;26.01
54512;BME280;40419;47.438;19.026;2022-08-05T13:35:00;99590.28;;;32.89;26.45
54512;BME280;40419;47.438;19.026;2022-08-05T13:37:32;99577.06;;;33.05;25.47
54512;BME280;40419;47.438;19.026;2022-08-05T13:40:00;99576.97;;;33.01;25.23
54512;BME280;40419;47.438;19.026;2022-08-05T13:42:29;99569.63;;;32.97;25.70